sensor_id;sensor_type;location;lat;lon;timestamp;temperature;humidity
51035;DHT22;37062;52.546;13.230;2023-03-23T00:01:30;15.40;99.90
51035;DHT22;37062;52.546;13.230;2023-03-23T00:04:03;15.40;99.90
51035;DHT22;37062;52.546;13.230;2023-03-23T00:06:30;15.30;99.90
51035;DHT22;37062;52.546;13.230;2023-03-23T00:08:59;15.20;99.90
51035;DHT22;37062;52.546;13.230;2023-03-23T00:11:31;15.20;99.90
51035;DHT22;37062;52.546;13.230;2023-03-23T00:14:01;15.10;99.90
51035;DHT22;37062;52.546;13.230;2023-03-23T00:16:30;15.20;99.90
51035;DHT22;37062;52.546;13.230;2023-03-23T00:18:59;15.20;99.90
51035;DHT22;37062;52.546;13.230;2023-03-23T00:21:34;15.20;99.90
51035;DHT22;37062;52.546;13.230;2023-03-23T00:24:05;15.10;99.90
51035;DHT22;37062;52.546;13.230;2023-03-23T00:26:33;15.10;99.90
51035;DHT22;37062;52.546;13.230;2023-03-23T00:29:03;15.10;99.90
51035;DHT22;37062;52.546;13.230;2023-03-23T00:31:31;15.10;99.90
51035;DHT22;37062;52.546;13.230;2023-03-23T00:33:59;15.10;99.90
51035;DHT22;37062;52.546;13.230;2023-03-23T00:36:30;15.00;99.90
51035;DHT22;37062;52.546;13.230;2023-03-23T00:38:57;15.00;99.90
51035;DHT22;37062;52.546;13.230;2023-03-23T00:41:26;15.00;99.90
51035;DHT22;37062;52.546;13.230;2023-03-23T00:43:55;14.90;99.90
51035;DHT22;37062;52.546;13.230;2023-03-23T00:46:24;14.80;99.90
51035;DHT22;37062;52.546;13.230;2023-03-23T00:48:52;14.80;99.90
51035;DHT22;37062;52.546;13.230;2023-03-23T00:51:20;14.70;99.90
51035;DHT22;37062;52.546;13.230;2023-03-23T00:53:47;14.70;99.90
51035;DHT22;37062;52.546;13.230;2023-03-23T00:56:15;14.60;99.90
51035;DHT22;37062;52.546;13.230;2023-03-23T00:58:42;14.60;99.90
51035;DHT22;37062;52.546;13.230;2023-03-23T01:01:09;14.60;99.90
51035;DHT22;37062;52.546;13.230;2023-03-23T01:03:38;14.50;99.90
51035;DHT22;37062;52.546;13.230;2023-03-23T01:06:07;14.50;99.90
51035;DHT22;37062;52.546;13.230;2023-03-23T01:08:42;14.50;99.90
51035;DHT22;37062;52.546;13.230;2023-03-23T01:11:13;14.40;99.90
51035;DHT22;37062;52.546;13.230;2023-03-23T01:13:42;14.40;99.90
51035;DHT22;37062;52.546;13.230;2023-03-23T01:16:10;14.40;99.90
51035;DHT22;37062;52.546;13.230;2023-03-23T01:18:39;14.50;99.90
51035;DHT22;37062;52.546;13.230;2023-03-23T01:21:08;14.40;99.90
51035;DHT22;37062;52.546;13.230;2023-03-23T01:23:36;14.40;99.90
51035;DHT22;37062;52.546;13.230;2023-03-23T01:26:04;14.30;99.90
51035;DHT22;37062;52.546;13.230;2023-03-23T01:28:33;14.20;99.90
51035;DHT22;37062;52.546;13.230;2023-03-23T01:31:02;14.20;99.90
51035;DHT22;37062;52.546;13.230;2023-03-23T01:33:29;14.10;99.90
51035;DHT22;37062;52.546;13.230;2023-03-23T01:36:02;14.10;99.90
51035;DHT22;37062;52.546;13.230;2023-03-23T01:38:30;14.20;99.90
51035;DHT22;37062;52.546;13.230;2023-03-23T01:40:57;14.20;99.90
51035;DHT22;37062;52.546;13.230;2023-03-23T01:43:25;14.20;99.90
51035;DHT22;37062;52.546;13.230;2023-03-23T01:45:53;14.20;99.90
51035;DHT22;37062;52.546;13.230;2023-03-23T01:48:23;14.20;99.90
51035;DHT22;37062;52.546;13.230;2023-03-23T01:50:55;14.20;99.90
51035;DHT22;37062;52.546;13.230;2023-03-23T01:53:30;14.20;99.90
51035;DHT22;37062;52.546;13.230;2023-03-23T01:56:00;14.20;99.90
51035;DHT22;37062;52.546;13.230;2023-03-23T01:58:31;14.20;99.90
51035;DHT22;37062;52.546;13.230;2023-03-23T02:01:03;14.20;99.90
51035;DHT22;37062;52.546;13.230;2023-03-23T02:03:31;14.30;99.90
51035;DHT22;37062;52.546;13.230;2023-03-23T02:05:59;14.30;99.90
51035;DHT22;37062;52.546;13.230;2023-03-23T02:08:39;14.30;99.90
51035;DHT22;37062;52.546;13.230;2023-03-23T02:11:12;14.40;99.90
51035;DHT22;37062;52.546;13.230;2023-03-23T02:13:40;14.40;99.90
51035;DHT22;37062;52.546;13.230;2023-03-23T02:16:10;14.40;99.90
51035;DHT22;37062;52.546;13.230;2023-03-23T02:18:54;14.50;99.90
51035;DHT22;37062;52.546;13.230;2023-03-23T02:21:59;14.50;99.90
51035;DHT22;37062;52.546;13.230;2023-03-23T02:24:55;14.40;99.90
51035;DHT22;37062;52.546;13.230;2023-03-23T02:27:47;14.50;99.90
51035;DHT22;37062;52.546;13.230;2023-03-23T02:30:31;14.50;99.90
51035;DHT22;37062;52.546;13.230;2023-03-23T02:33:30;14.60;99.90
51035;DHT22;37062;52.546;13.230;2023-03-23T02:36:05;14.60;99.90
51035;DHT22;37062;52.546;13.230;2023-03-23T02:38:43;14.60;99.90
51035;DHT22;37062;52.546;13.230;2023-03-23T02:41:19;14.70;99.90
51035;DHT22;37062;52.546;13.230;2023-03-23T02:43:49;14.70;99.90
51035;DHT22;37062;52.546;13.230;2023-03-23T02:46:16;14.60;99.90
51035;DHT22;37062;52.546;13.230;2023-03-23T02:48:48;14.60;99.90
51035;DHT22;37062;52.546;13.230;2023-03-23T02:51:18;14.60;99.90
51035;DHT22;37062;52.546;13.230;2023-03-23T02:53:48;14.60;99.90
51035;DHT22;37062;52.546;13.230;2023-03-23T02:56:17;14.50;99.90
51035;DHT22;37062;52.546;13.230;2023-03-23T02:58:45;14.50;99.90
51035;DHT22;37062;52.546;13.230;2023-03-23T03:04:20;14.60;99.90
51035;DHT22;37062;52.546;13.230;2023-03-23T03:06:59;14.60;99.90
51035;DHT22;37062;52.546;13.230;2023-03-23T03:09:34;14.60;99.90
51035;DHT22;37062;52.546;13.230;2023-03-23T03:12:10;14.60;99.90
51035;DHT22;37062;52.546;13.230;2023-03-23T03:14:44;14.70;99.90
51035;DHT22;37062;52.546;13.230;2023-03-23T03:17:20;14.70;99.90
51035;DHT22;37062;52.546;13.230;2023-03-23T03:19:54;14.70;99.90
51035;DHT22;37062;52.546;13.230;2023-03-23T03:22:24;14.70;99.90
51035;DHT22;37062;52.546;13.230;2023-03-23T03:24:55;14.70;99.90
51035;DHT22;37062;52.546;13.230;2023-03-23T03:27:25;14.70;99.90
51035;DHT22;37062;52.546;13.230;2023-03-23T03:30:12;14.80;99.90
51035;DHT22;37062;52.546;13.230;2023-03-23T03:32:46;14.70;99.90
51035;DHT22;37062;52.546;13.230;2023-03-23T03:35:17;14.70;99.90
51035;DHT22;37062;52.546;13.230;2023-03-23T03:37:45;14.70;99.90
51035;DHT22;37062;52.546;13.230;2023-03-23T03:40:15;14.70;99.90
51035;DHT22;37062;52.546;13.230;2023-03-23T03:42:44;14.70;99.90
51035;DHT22;37062;52.546;13.230;2023-03-23T03:45:13;14.70;99.90
51035;DHT22;37062;52.546;13.230;2023-03-23T03:47:41;14.80;99.90
51035;DHT22;37062;52.546;13.230;2023-03-23T03:50:10;14.80;99.90
51035;DHT22;37062;52.546;13.230;2023-03-23T03:52:39;14.80;99.90
51035;DHT22;37062;52.546;13.230;2023-03-23T03:55:08;14.80;99.90
51035;DHT22;37062;52.546;13.230;2023-03-23T03:57:39;14.80;99.90
51035;DHT22;37062;52.546;13.230;2023-03-23T04:00:42;14.80;99.90
51035;DHT22;37062;52.546;13.230;2023-03-23T04:03:16;14.80;99.90
51035;DHT22;37062;52.546;13.230;2023-03-23T04:06:03;14.70;99.90
51035;DHT22;37062;52.546;13.230;2023-03-23T04:08:35;14.80;99.90
51035;DHT22;37062;52.546;13.230;2023-03-23T04:11:04;14.80;99.90
51035;DHT22;37062;52.546;13.230;2023-03-23T04:13:32;14.80;99.90
51035;DHT22;37062;52.546;13.230;2023-03-23T04:16:08;14.90;99.90
51035;DHT22;37062;52.546;13.230;2023-03-23T04:18:35;14.80;99.90
51035;DHT22;37062;52.546;13.230;2023-03-23T04:21:04;14.80;99.90
51035;DHT22;37062;52.546;13.230;2023-03-23T04:23:36;14.80;99.90
51035;DHT22;37062;52.546;13.230;2023-03-23T04:26:06;14.70;99.90
51035;DHT22;37062;52.546;13.230;2023-03-23T04:28:38;14.70;99.90
51035;DHT22;37062;52.546;13.230;2023-03-23T04:31:32;14.70;99.90
51035;DHT22;37062;52.546;13.230;2023-03-23T04:34:19;14.70;99.90
51035;DHT22;37062;52.546;13.230;2023-03-23T04:36:50;14.70;99.90
51035;DHT22;37062;52.546;13.230;2023-03-23T04:39:23;14.70;99.90
51035;DHT22;37062;52.546;13.230;2023-03-23T04:41:55;14.70;99.90
51035;DHT22;37062;52.546;13.230;2023-03-23T04:44:46;14.70;99.90
51035;DHT22;37062;52.546;13.230;2023-03-23T04:47:22;14.70;99.90
51035;DHT22;37062;52.546;13.230;2023-03-23T04:49:55;14.70;99.90
51035;DHT22;37062;52.546;13.230;2023-03-23T04:52:34;14.70;99.90
51035;DHT22;37062;52.546;13.230;2023-03-23T04:55:07;14.70;99.90
51035;DHT22;37062;52.546;13.230;2023-03-23T04:57:37;14.60;99.90
51035;DHT22;37062;52.546;13.230;2023-03-23T05:00:23;14.60;99.90
51035;DHT22;37062;52.546;13.230;2023-03-23T05:02:53;14.60;99.90
51035;DHT22;37062;52.546;13.230;2023-03-23T05:05:24;14.60;99.90
51035;DHT22;37062;52.546;13.230;2023-03-23T05:07:55;14.60;99.90
51035;DHT22;37062;52.546;13.230;2023-03-23T05:10:27;14.60;99.90
51035;DHT22;37062;52.546;13.230;2023-03-23T05:13:00;14.60;99.90
51035;DHT22;37062;52.546;13.230;2023-03-23T05:15:28;14.50;99.90
51035;DHT22;37062;52.546;13.230;2023-03-23T05:17:56;14.40;99.90
51035;DHT22;37062;52.546;13.230;2023-03-23T05:20:24;14.40;99.90
51035;DHT22;37062;52.546;13.230;2023-03-23T05:22:58;14.30;99.90
51035;DHT22;37062;52.546;13.230;2023-03-23T05:25:34;14.30;99.90
51035;DHT22;37062;52.546;13.230;2023-03-23T05:28:18;14.30;99.90
51035;DHT22;37062;52.546;13.230;2023-03-23T05:30:48;14.30;99.90
51035;DHT22;37062;52.546;13.230;2023-03-23T05:33:16;14.30;99.90
51035;DHT22;37062;52.546;13.230;2023-03-23T05:35:51;14.30;99.90
51035;DHT22;37062;52.546;13.230;2023-03-23T05:38:24;14.30;99.90
51035;DHT22;37062;52.546;13.230;2023-03-23T05:40:58;14.30;99.90
51035;DHT22;37062;52.546;13.230;2023-03-23T05:43:30;14.20;99.90
51035;DHT22;37062;52.546;13.230;2023-03-23T05:46:07;14.10;99.90
51035;DHT22;37062;52.546;13.230;2023-03-23T05:48:36;14.00;99.90
51035;DHT22;37062;52.546;13.230;2023-03-23T05:51:08;14.00;99.90
51035;DHT22;37062;52.546;13.230;2023-03-23T05:53:39;14.00;99.90
51035;DHT22;37062;52.546;13.230;2023-03-23T05:56:10;14.00;99.90
51035;DHT22;37062;52.546;13.230;2023-03-23T05:58:56;14.00;99.90
51035;DHT22;37062;52.546;13.230;2023-03-23T06:01:25;14.00;99.90
51035;DHT22;37062;52.546;13.230;2023-03-23T06:03:52;14.00;99.90
51035;DHT22;37062;52.546;13.230;2023-03-23T06:06:29;14.00;99.90
51035;DHT22;37062;52.546;13.230;2023-03-23T06:09:07;13.90;99.90
51035;DHT22;37062;52.546;13.230;2023-03-23T06:11:53;13.90;99.90
51035;DHT22;37062;52.546;13.230;2023-03-23T06:14:47;13.80;99.90
51035;DHT22;37062;52.546;13.230;2023-03-23T06:17:18;13.80;99.90
51035;DHT22;37062;52.546;13.230;2023-03-23T06:19:50;13.70;99.90
51035;DHT22;37062;52.546;13.230;2023-03-23T06:22:18;13.70;99.90
51035;DHT22;37062;52.546;13.230;2023-03-23T06:25:03;13.70;99.90
51035;DHT22;37062;52.546;13.230;2023-03-23T06:27:39;13.60;99.90
51035;DHT22;37062;52.546;13.230;2023-03-23T06:30:09;13.60;99.90
51035;DHT22;37062;52.546;13.230;2023-03-23T06:32:38;13.60;99.90
51035;DHT22;37062;52.546;13.230;2023-03-23T06:35:10;13.70;99.90
51035;DHT22;37062;52.546;13.230;2023-03-23T06:37:57;13.70;99.90
51035;DHT22;37062;52.546;13.230;2023-03-23T06:40:37;13.70;99.90
51035;DHT22;37062;52.546;13.230;2023-03-23T06:43:07;13.70;99.90
51035;DHT22;37062;52.546;13.230;2023-03-23T06:45:50;13.70;99.90
51035;DHT22;37062;52.546;13.230;2023-03-23T06:48:38;13.70;99.90
51035;DHT22;37062;52.546;13.230;2023-03-23T06:51:06;13.70;99.90
51035;DHT22;37062;52.546;13.230;2023-03-23T06:53:36;13.70;99.90
51035;DHT22;37062;52.546;13.230;2023-03-23T06:56:06;13.70;99.90
51035;DHT22;37062;52.546;13.230;2023-03-23T06:58:36;13.80;99.90
51035;DHT22;37062;52.546;13.230;2023-03-23T07:01:04;13.70;99.90
51035;DHT22;37062;52.546;13.230;2023-03-23T07:03:38;13.70;99.90
51035;DHT22;37062;52.546;13.230;2023-03-23T07:06:09;13.70;99.90
51035;DHT22;37062;52.546;13.230;2023-03-23T07:08:44;13.70;99.90
51035;DHT22;37062;52.546;13.230;2023-03-23T07:11:16;13.70;99.90
51035;DHT22;37062;52.546;13.230;2023-03-23T07:13:45;13.60;99.90
51035;DHT22;37062;52.546;13.230;2023-03-23T07:16:13;13.50;99.90
51035;DHT22;37062;52.546;13.230;2023-03-23T07:18:41;13.60;99.90
51035;DHT22;37062;52.546;13.230;2023-03-23T07:21:09;13.70;99.90
51035;DHT22;37062;52.546;13.230;2023-03-23T07:23:38;13.70;99.90
51035;DHT22;37062;52.546;13.230;2023-03-23T07:26:09;13.70;99.90
51035;DHT22;37062;52.546;13.230;2023-03-23T07:28:48;13.70;99.90
51035;DHT22;37062;52.546;13.230;2023-03-23T07:31:41;13.70;99.90
51035;DHT22;37062;52.546;13.230;2023-03-23T07:34:09;13.80;99.90
51035;DHT22;37062;52.546;13.230;2023-03-23T07:36:56;13.80;99.90
51035;DHT22;37062;52.546;13.230;2023-03-23T07:39:27;13.80;99.90
51035;DHT22;37062;52.546;13.230;2023-03-23T07:41:58;13.80;99.90
51035;DHT22;37062;52.546;13.230;2023-03-23T07:44:37;13.70;99.90
51035;DHT22;37062;52.546;13.230;2023-03-23T07:47:08;13.60;99.90
51035;DHT22;37062;52.546;13.230;2023-03-23T07:49:36;13.60;99.90
51035;DHT22;37062;52.546;13.230;2023-03-23T07:52:14;13.60;99.90
51035;DHT22;37062;52.546;13.230;2023-03-23T07:54:42;13.80;99.90
51035;DHT22;37062;52.546;13.230;2023-03-23T07:57:36;13.90;99.90
51035;DHT22;37062;52.546;13.230;2023-03-23T08:00:08;14.10;99.90
51035;DHT22;37062;52.546;13.230;2023-03-23T08:02:44;14.20;99.90
51035;DHT22;37062;52.546;13.230;2023-03-23T08:05:28;14.20;99.90
51035;DHT22;37062;52.546;13.230;2023-03-23T08:08:14;14.30;99.90
51035;DHT22;37062;52.546;13.230;2023-03-23T08:11:01;14.40;99.90
51035;DHT22;37062;52.546;13.230;2023-03-23T08:14:02;14.50;99.90
51035;DHT22;37062;52.546;13.230;2023-03-23T08:16:42;14.50;99.90
51035;DHT22;37062;52.546;13.230;2023-03-23T08:19:35;14.50;99.90
51035;DHT22;37062;52.546;13.230;2023-03-23T08:22:26;14.50;99.90
51035;DHT22;37062;52.546;13.230;2023-03-23T08:25:14;14.50;99.90
51035;DHT22;37062;52.546;13.230;2023-03-23T08:28:03;14.50;99.90
51035;DHT22;37062;52.546;13.230;2023-03-23T08:30:57;14.40;99.90
51035;DHT22;37062;52.546;13.230;2023-03-23T08:33:46;14.50;99.90
51035;DHT22;37062;52.546;13.230;2023-03-23T08:36:34;14.60;99.90
51035;DHT22;37062;52.546;13.230;2023-03-23T08:39:22;14.60;99.90
51035;DHT22;37062;52.546;13.230;2023-03-23T08:42:00;14.60;99.90
51035;DHT22;37062;52.546;13.230;2023-03-23T08:44:57;14.70;99.90
51035;DHT22;37062;52.546;13.230;2023-03-23T08:48:00;14.70;99.90
51035;DHT22;37062;52.546;13.230;2023-03-23T08:50:47;14.80;99.90
51035;DHT22;37062;52.546;13.230;2023-03-23T08:53:34;14.80;99.90
51035;DHT22;37062;52.546;13.230;2023-03-23T08:56:31;14.80;99.90
51035;DHT22;37062;52.546;13.230;2023-03-23T08:59:07;14.80;99.90
51035;DHT22;37062;52.546;13.230;2023-03-23T09:01:42;14.80;99.90
51035;DHT22;37062;52.546;13.230;2023-03-23T09:04:35;14.90;99.90
51035;DHT22;37062;52.546;13.230;2023-03-23T09:07:24;15.00;99.90
51035;DHT22;37062;52.546;13.230;2023-03-23T09:09:51;15.10;99.90
51035;DHT22;37062;52.546;13.230;2023-03-23T09:12:18;15.10;99.90
51035;DHT22;37062;52.546;13.230;2023-03-23T09:14:46;15.10;99.90
51035;DHT22;37062;52.546;13.230;2023-03-23T09:17:13;15.10;99.90
51035;DHT22;37062;52.546;13.230;2023-03-23T09:19:40;15.20;99.90
51035;DHT22;37062;52.546;13.230;2023-03-23T09:22:08;15.30;99.90
51035;DHT22;37062;52.546;13.230;2023-03-23T09:24:36;15.30;99.90
51035;DHT22;37062;52.546;13.230;2023-03-23T09:27:07;15.40;99.90
51035;DHT22;37062;52.546;13.230;2023-03-23T09:29:34;15.50;99.90
51035;DHT22;37062;52.546;13.230;2023-03-23T09:32:02;15.60;99.90
51035;DHT22;37062;52.546;13.230;2023-03-23T09:34:29;15.80;99.90
51035;DHT22;37062;52.546;13.230;2023-03-23T09:37:01;16.00;99.90
51035;DHT22;37062;52.546;13.230;2023-03-23T09:39:30;16.20;99.90
51035;DHT22;37062;52.546;13.230;2023-03-23T09:42:17;16.30;99.90
51035;DHT22;37062;52.546;13.230;2023-03-23T09:44:57;16.50;99.90
51035;DHT22;37062;52.546;13.230;2023-03-23T09:47:36;16.60;99.90
51035;DHT22;37062;52.546;13.230;2023-03-23T09:50:10;16.70;99.90
51035;DHT22;37062;52.546;13.230;2023-03-23T09:52:43;16.80;99.90
51035;DHT22;37062;52.546;13.230;2023-03-23T09:55:15;16.90;99.90
51035;DHT22;37062;52.546;13.230;2023-03-23T09:57:49;17.00;99.90
51035;DHT22;37062;52.546;13.230;2023-03-23T10:00:22;17.00;99.90
51035;DHT22;37062;52.546;13.230;2023-03-23T10:02:58;17.10;99.90
51035;DHT22;37062;52.546;13.230;2023-03-23T10:05:31;17.20;99.90
51035;DHT22;37062;52.546;13.230;2023-03-23T10:08:01;17.30;99.90
51035;DHT22;37062;52.546;13.230;2023-03-23T10:10:43;17.20;99.90
51035;DHT22;37062;52.546;13.230;2023-03-23T10:13:20;17.20;99.90
51035;DHT22;37062;52.546;13.230;2023-03-23T10:15:50;17.10;99.90
51035;DHT22;37062;52.546;13.230;2023-03-23T10:18:26;17.10;99.90
51035;DHT22;37062;52.546;13.230;2023-03-23T10:20:56;17.20;99.90
51035;DHT22;37062;52.546;13.230;2023-03-23T10:26:37;17.20;99.90
51035;DHT22;37062;52.546;13.230;2023-03-23T10:29:16;17.20;99.90
51035;DHT22;37062;52.546;13.230;2023-03-23T10:31:48;17.30;99.90
51035;DHT22;37062;52.546;13.230;2023-03-23T10:34:21;17.30;99.90
51035;DHT22;37062;52.546;13.230;2023-03-23T10:37:02;17.30;99.90
51035;DHT22;37062;52.546;13.230;2023-03-23T10:39:33;17.40;99.90
51035;DHT22;37062;52.546;13.230;2023-03-23T10:42:04;17.50;99.90
51035;DHT22;37062;52.546;13.230;2023-03-23T10:44:42;17.50;99.90
51035;DHT22;37062;52.546;13.230;2023-03-23T10:47:09;17.60;99.90
51035;DHT22;37062;52.546;13.230;2023-03-23T10:49:42;17.60;99.90
51035;DHT22;37062;52.546;13.230;2023-03-23T10:52:23;17.60;99.90
51035;DHT22;37062;52.546;13.230;2023-03-23T10:54:55;17.60;99.90
51035;DHT22;37062;52.546;13.230;2023-03-23T10:57:25;17.70;99.90
51035;DHT22;37062;52.546;13.230;2023-03-23T11:00:04;17.70;99.90
51035;DHT22;37062;52.546;13.230;2023-03-23T11:02:39;17.70;99.90
51035;DHT22;37062;52.546;13.230;2023-03-23T11:05:16;17.60;99.90
51035;DHT22;37062;52.546;13.230;2023-03-23T11:07:50;17.40;99.90
51035;DHT22;37062;52.546;13.230;2023-03-23T11:10:24;17.50;99.90
51035;DHT22;37062;52.546;13.230;2023-03-23T11:12:57;17.50;99.90
51035;DHT22;37062;52.546;13.230;2023-03-23T11:15:30;17.50;99.90
51035;DHT22;37062;52.546;13.230;2023-03-23T11:18:00;17.40;99.90
51035;DHT22;37062;52.546;13.230;2023-03-23T11:20:29;17.40;99.90
51035;DHT22;37062;52.546;13.230;2023-03-23T11:22:57;17.50;99.90
51035;DHT22;37062;52.546;13.230;2023-03-23T11:25:25;17.50;99.90
51035;DHT22;37062;52.546;13.230;2023-03-23T11:27:53;17.60;99.90
51035;DHT22;37062;52.546;13.230;2023-03-23T11:30:25;17.70;99.90
51035;DHT22;37062;52.546;13.230;2023-03-23T11:32:59;17.80;99.90
51035;DHT22;37062;52.546;13.230;2023-03-23T11:35:29;17.80;99.90
51035;DHT22;37062;52.546;13.230;2023-03-23T11:37:57;17.90;99.90
51035;DHT22;37062;52.546;13.230;2023-03-23T11:40:27;18.00;99.90
51035;DHT22;37062;52.546;13.230;2023-03-23T11:43:00;18.10;99.90
51035;DHT22;37062;52.546;13.230;2023-03-23T11:45:33;18.20;99.90
51035;DHT22;37062;52.546;13.230;2023-03-23T11:48:21;18.30;99.90
51035;DHT22;37062;52.546;13.230;2023-03-23T11:50:53;18.30;99.90
51035;DHT22;37062;52.546;13.230;2023-03-23T11:53:39;18.30;99.90
51035;DHT22;37062;52.546;13.230;2023-03-23T11:56:15;18.20;99.90
51035;DHT22;37062;52.546;13.230;2023-03-23T11:58:44;18.20;99.90
51035;DHT22;37062;52.546;13.230;2023-03-23T12:01:20;18.30;99.90
51035;DHT22;37062;52.546;13.230;2023-03-23T12:04:10;18.30;99.90
51035;DHT22;37062;52.546;13.230;2023-03-23T12:06:45;18.40;99.90
51035;DHT22;37062;52.546;13.230;2023-03-23T12:09:24;18.40;99.90
51035;DHT22;37062;52.546;13.230;2023-03-23T12:12:06;18.40;99.90
51035;DHT22;37062;52.546;13.230;2023-03-23T12:14:41;18.30;99.90
51035;DHT22;37062;52.546;13.230;2023-03-23T12:17:19;18.30;99.90
51035;DHT22;37062;52.546;13.230;2023-03-23T12:19:58;18.30;99.90
51035;DHT22;37062;52.546;13.230;2023-03-23T12:22:41;18.30;99.90
51035;DHT22;37062;52.546;13.230;2023-03-23T12:25:31;18.20;99.90
51035;DHT22;37062;52.546;13.230;2023-03-23T12:28:07;18.20;99.90
51035;DHT22;37062;52.546;13.230;2023-03-23T12:30:42;18.10;99.90
51035;DHT22;37062;52.546;13.230;2023-03-23T12:33:21;18.10;99.90
51035;DHT22;37062;52.546;13.230;2023-03-23T12:36:02;18.10;99.90
51035;DHT22;37062;52.546;13.230;2023-03-23T12:39:02;18.10;99.90
51035;DHT22;37062;52.546;13.230;2023-03-23T12:41:38;18.10;99.90
51035;DHT22;37062;52.546;13.230;2023-03-23T12:44:09;18.20;99.90
51035;DHT22;37062;52.546;13.230;2023-03-23T12:46:58;18.20;99.90
51035;DHT22;37062;52.546;13.230;2023-03-23T12:49:34;18.30;99.90
51035;DHT22;37062;52.546;13.230;2023-03-23T12:52:10;18.30;99.90
51035;DHT22;37062;52.546;13.230;2023-03-23T12:54:44;18.30;99.90
51035;DHT22;37062;52.546;13.230;2023-03-23T12:57:20;18.40;99.90
51035;DHT22;37062;52.546;13.230;2023-03-23T12:59:54;18.50;99.90
51035;DHT22;37062;52.546;13.230;2023-03-23T13:02:25;18.70;99.90
51035;DHT22;37062;52.546;13.230;2023-03-23T13:05:03;18.80;99.90
51035;DHT22;37062;52.546;13.230;2023-03-23T13:07:37;18.90;99.90
51035;DHT22;37062;52.546;13.230;2023-03-23T13:10:15;18.90;99.90
51035;DHT22;37062;52.546;13.230;2023-03-23T13:12:47;19.00;99.90
51035;DHT22;37062;52.546;13.230;2023-03-23T13:15:22;19.00;99.90
51035;DHT22;37062;52.546;13.230;2023-03-23T13:17:58;19.00;99.90
51035;DHT22;37062;52.546;13.230;2023-03-23T13:20:53;18.90;99.90
51035;DHT22;37062;52.546;13.230;2023-03-23T13:23:25;18.90;99.90
51035;DHT22;37062;52.546;13.230;2023-03-23T13:25:56;18.90;99.90
51035;DHT22;37062;52.546;13.230;2023-03-23T13:28:27;18.90;99.90
51035;DHT22;37062;52.546;13.230;2023-03-23T13:31:00;18.80;99.90
51035;DHT22;37062;52.546;13.230;2023-03-23T13:33:32;18.70;99.90
51035;DHT22;37062;52.546;13.230;2023-03-23T13:36:08;18.70;99.90
51035;DHT22;37062;52.546;13.230;2023-03-23T13:38:38;18.70;99.90
51035;DHT22;37062;52.546;13.230;2023-03-23T13:41:08;18.70;99.90
51035;DHT22;37062;52.546;13.230;2023-03-23T13:43:38;18.70;99.90
51035;DHT22;37062;52.546;13.230;2023-03-23T13:46:09;18.80;99.90
51035;DHT22;37062;52.546;13.230;2023-03-23T13:48:42;18.80;99.90
51035;DHT22;37062;52.546;13.230;2023-03-23T13:51:32;18.80;99.90
51035;DHT22;37062;52.546;13.230;2023-03-23T13:54:19;18.70;99.90
51035;DHT22;37062;52.546;13.230;2023-03-23T13:56:54;18.70;99.90
51035;DHT22;37062;52.546;13.230;2023-03-23T13:59:32;18.80;99.90
51035;DHT22;37062;52.546;13.230;2023-03-23T14:02:26;18.90;99.90
51035;DHT22;37062;52.546;13.230;2023-03-23T14:04:55;18.90;99.90
51035;DHT22;37062;52.546;13.230;2023-03-23T14:07:23;18.90;99.90
51035;DHT22;37062;52.546;13.230;2023-03-23T14:09:51;19.00;99.90
51035;DHT22;37062;52.546;13.230;2023-03-23T14:12:21;19.00;99.90
51035;DHT22;37062;52.546;13.230;2023-03-23T14:14:50;19.00;99.90
51035;DHT22;37062;52.546;13.230;2023-03-23T14:17:22;19.10;99.90
51035;DHT22;37062;52.546;13.230;2023-03-23T14:19:52;19.00;99.90
51035;DHT22;37062;52.546;13.230;2023-03-23T14:22:27;18.90;99.90
51035;DHT22;37062;52.546;13.230;2023-03-23T14:25:01;19.00;99.90
51035;DHT22;37062;52.546;13.230;2023-03-23T14:27:35;18.90;99.90
51035;DHT22;37062;52.546;13.230;2023-03-23T14:30:04;18.80;99.90
51035;DHT22;37062;52.546;13.230;2023-03-23T14:32:33;18.80;99.90
51035;DHT22;37062;52.546;13.230;2023-03-23T14:35:05;18.80;99.90
51035;DHT22;37062;52.546;13.230;2023-03-23T14:37:33;18.90;99.90
51035;DHT22;37062;52.546;13.230;2023-03-23T14:40:04;19.00;99.90
51035;DHT22;37062;52.546;13.230;2023-03-23T14:42:35;19.00;99.90
51035;DHT22;37062;52.546;13.230;2023-03-23T14:45:05;19.00;99.90
51035;DHT22;37062;52.546;13.230;2023-03-23T14:47:34;19.10;99.90
51035;DHT22;37062;52.546;13.230;2023-03-23T14:50:05;19.10;99.90
51035;DHT22;37062;52.546;13.230;2023-03-23T14:52:35;19.10;99.90
51035;DHT22;37062;52.546;13.230;2023-03-23T14:55:13;19.00;99.90
51035;DHT22;37062;52.546;13.230;2023-03-23T14:57:41;19.00;99.90
51035;DHT22;37062;52.546;13.230;2023-03-23T15:00:13;19.00;99.90
51035;DHT22;37062;52.546;13.230;2023-03-23T15:02:45;19.00;99.90
51035;DHT22;37062;52.546;13.230;2023-03-23T15:05:15;18.90;99.90
51035;DHT22;37062;52.546;13.230;2023-03-23T15:07:49;19.00;99.90
51035;DHT22;37062;52.546;13.230;2023-03-23T15:10:20;18.90;99.90
51035;DHT22;37062;52.546;13.230;2023-03-23T15:12:49;18.90;99.90
51035;DHT22;37062;52.546;13.230;2023-03-23T15:15:26;18.90;99.90
51035;DHT22;37062;52.546;13.230;2023-03-23T15:17:55;18.80;99.90
51035;DHT22;37062;52.546;13.230;2023-03-23T15:20:25;18.70;99.90
51035;DHT22;37062;52.546;13.230;2023-03-23T15:22:54;18.70;99.90
51035;DHT22;37062;52.546;13.230;2023-03-23T15:25:29;18.70;99.90
51035;DHT22;37062;52.546;13.230;2023-03-23T15:28:06;18.70;99.90
51035;DHT22;37062;52.546;13.230;2023-03-23T15:30:37;18.70;99.90
51035;DHT22;37062;52.546;13.230;2023-03-23T15:33:13;18.70;99.90
51035;DHT22;37062;52.546;13.230;2023-03-23T15:35:45;18.70;99.90
51035;DHT22;37062;52.546;13.230;2023-03-23T15:38:21;18.70;99.90
51035;DHT22;37062;52.546;13.230;2023-03-23T15:40:53;18.60;99.90
51035;DHT22;37062;52.546;13.230;2023-03-23T15:43:23;18.60;99.90
51035;DHT22;37062;52.546;13.230;2023-03-23T15:45:54;18.50;99.90
51035;DHT22;37062;52.546;13.230;2023-03-23T15:48:23;18.50;99.90
51035;DHT22;37062;52.546;13.230;2023-03-23T15:50:51;18.50;99.90
51035;DHT22;37062;52.546;13.230;2023-03-23T15:53:27;18.50;99.90
51035;DHT22;37062;52.546;13.230;2023-03-23T15:55:57;18.60;99.90
51035;DHT22;37062;52.546;13.230;2023-03-23T15:58:25;18.70;99.90
51035;DHT22;37062;52.546;13.230;2023-03-23T16:00:53;18.70;99.90
51035;DHT22;37062;52.546;13.230;2023-03-23T16:03:23;18.60;99.90
51035;DHT22;37062;52.546;13.230;2023-03-23T16:05:53;18.60;99.90